sensor_id;sensor_type;location;lat;lon;timestamp;P1;durP1;ratioP1;P2;durP2;ratioP2
3791;SDS011;1911;53.768;11.474;2023-07-20T00:00:25;7.27;;;5.90;;
3791;SDS011;1911;53.768;11.474;2023-07-20T00:02:51;6.47;;;5.57;;
3791;SDS011;1911;53.768;11.474;2023-07-20T00:05:17;6.17;;;5.17;;
3791;SDS011;1911;53.768;11.474;2023-07-20T00:07:49;6.60;;;5.97;;
3791;SDS011;1911;53.768;11.474;2023-07-20T00:10:17;5.93;;;5.33;;
3791;SDS011;1911;53.768;11.474;2023-07-20T00:12:42;6.63;;;5.57;;
3791;SDS011;1911;53.768;11.474;2023-07-20T00:15:12;8.83;;;5.70;;
3791;SDS011;1911;53.768;11.474;2023-07-20T00:17:38;9.70;;;5.40;;
3791;SDS011;1911;53.768;11.474;2023-07-20T00:20:05;7.20;;;5.77;;
3791;SDS011;1911;53.768;11.474;2023-07-20T00:22:31;5.97;;;5.17;;
3791;SDS011;1911;53.768;11.474;2023-07-20T00:24:57;7.00;;;5.93;;
3791;SDS011;1911;53.768;11.474;2023-07-20T00:27:22;10.57;;;7.37;;
3791;SDS011;1911;53.768;11.474;2023-07-20T00:29:48;7.37;;;6.20;;
3791;SDS011;1911;53.768;11.474;2023-07-20T00:32:13;8.30;;;6.13;;
3791;SDS011;1911;53.768;11.474;2023-07-20T00:34:39;8.00;;;7.17;;
3791;SDS011;1911;53.768;11.474;2023-07-20T00:37:04;6.40;;;5.37;;
3791;SDS011;1911;53.768;11.474;2023-07-20T00:39:30;6.33;;;5.70;;
3791;SDS011;1911;53.768;11.474;2023-07-20T00:41:56;10.13;;;7.50;;
3791;SDS011;1911;53.768;11.474;2023-07-20T00:44:22;8.33;;;6.17;;
3791;SDS011;1911;53.768;11.474;2023-07-20T00:46:48;6.37;;;5.73;;
3791;SDS011;1911;53.768;11.474;2023-07-20T00:49:14;7.30;;;6.50;;
3791;SDS011;1911;53.768;11.474;2023-07-20T00:51:40;6.80;;;6.10;;
3791;SDS011;1911;53.768;11.474;2023-07-20T00:54:06;8.77;;;6.07;;
3791;SDS011;1911;53.768;11.474;2023-07-20T00:56:33;8.40;;;7.07;;
3791;SDS011;1911;53.768;11.474;2023-07-20T00:58:59;6.30;;;5.70;;
3791;SDS011;1911;53.768;11.474;2023-07-20T01:01:24;7.77;;;6.07;;
3791;SDS011;1911;53.768;11.474;2023-07-20T01:03:50;6.50;;;5.47;;
3791;SDS011;1911;53.768;11.474;2023-07-20T01:06:20;7.73;;;5.17;;
3791;SDS011;1911;53.768;11.474;2023-07-20T01:14:30;6.97;;;6.27;;
3791;SDS011;1911;53.768;11.474;2023-07-20T01:16:57;6.83;;;6.10;;
3791;SDS011;1911;53.768;11.474;2023-07-20T01:19:23;9.13;;;5.93;;
3791;SDS011;1911;53.768;11.474;2023-07-20T01:30:25;14.20;;;5.43;;
3791;SDS011;1911;53.768;11.474;2023-07-20T01:32:52;7.33;;;5.30;;
3791;SDS011;1911;53.768;11.474;2023-07-20T01:35:20;7.37;;;5.27;;
3791;SDS011;1911;53.768;11.474;2023-07-20T01:37:48;7.37;;;6.27;;
3791;SDS011;1911;53.768;11.474;2023-07-20T01:40:16;8.20;;;5.63;;
3791;SDS011;1911;53.768;11.474;2023-07-20T01:42:46;8.03;;;4.90;;
3791;SDS011;1911;53.768;11.474;2023-07-20T01:45:12;6.10;;;5.00;;
3791;SDS011;1911;53.768;11.474;2023-07-20T01:47:38;6.07;;;5.33;;
3791;SDS011;1911;53.768;11.474;2023-07-20T01:50:03;5.97;;;4.90;;
3791;SDS011;1911;53.768;11.474;2023-07-20T01:52:29;6.43;;;5.37;;
3791;SDS011;1911;53.768;11.474;2023-07-20T01:54:55;5.63;;;5.03;;
3791;SDS011;1911;53.768;11.474;2023-07-20T01:57:20;5.20;;;4.67;;
3791;SDS011;1911;53.768;11.474;2023-07-20T01:59:46;6.27;;;4.90;;
3791;SDS011;1911;53.768;11.474;2023-07-20T02:08:56;5.53;;;4.50;;
3791;SDS011;1911;53.768;11.474;2023-07-20T02:11:21;4.90;;;4.40;;
3791;SDS011;1911;53.768;11.474;2023-07-20T02:13:47;6.33;;;4.97;;
3791;SDS011;1911;53.768;11.474;2023-07-20T02:16:12;5.67;;;3.97;;
3791;SDS011;1911;53.768;11.474;2023-07-20T02:18:38;7.07;;;4.70;;
3791;SDS011;1911;53.768;11.474;2023-07-20T02:21:04;6.60;;;4.47;;
3791;SDS011;1911;53.768;11.474;2023-07-20T02:23:30;4.90;;;4.27;;
3791;SDS011;1911;53.768;11.474;2023-07-20T02:25:55;5.87;;;4.30;;
3791;SDS011;1911;53.768;11.474;2023-07-20T02:28:21;5.57;;;3.93;;
3791;SDS011;1911;53.768;11.474;2023-07-20T02:30:46;5.47;;;3.90;;
3791;SDS011;1911;53.768;11.474;2023-07-20T02:33:14;5.23;;;4.50;;
3791;SDS011;1911;53.768;11.474;2023-07-20T02:35:40;8.73;;;4.10;;
3791;SDS011;1911;53.768;11.474;2023-07-20T02:38:05;7.50;;;4.40;;
3791;SDS011;1911;53.768;11.474;2023-07-20T02:40:32;3.90;;;3.40;;
3791;SDS011;1911;53.768;11.474;2023-07-20T02:42:57;5.90;;;4.17;;
3791;SDS011;1911;53.768;11.474;2023-07-20T02:45:23;3.93;;;3.37;;
3791;SDS011;1911;53.768;11.474;2023-07-20T02:47:48;5.23;;;3.90;;
3791;SDS011;1911;53.768;11.474;2023-07-20T02:50:14;6.00;;;3.80;;
3791;SDS011;1911;53.768;11.474;2023-07-20T02:52:40;4.10;;;3.70;;
3791;SDS011;1911;53.768;11.474;2023-07-20T02:55:06;6.30;;;4.30;;
3791;SDS011;1911;53.768;11.474;2023-07-20T02:57:32;4.10;;;3.70;;
3791;SDS011;1911;53.768;11.474;2023-07-20T02:59:57;4.27;;;3.87;;
3791;SDS011;1911;53.768;11.474;2023-07-20T03:02:23;4.87;;;4.00;;
3791;SDS011;1911;53.768;11.474;2023-07-20T03:04:48;5.10;;;4.03;;
3791;SDS011;1911;53.768;11.474;2023-07-20T03:07:14;4.93;;;3.90;;
3791;SDS011;1911;53.768;11.474;2023-07-20T03:09:39;5.57;;;4.17;;
3791;SDS011;1911;53.768;11.474;2023-07-20T03:12:06;4.80;;;3.50;;
3791;SDS011;1911;53.768;11.474;2023-07-20T03:14:32;5.37;;;3.90;;
3791;SDS011;1911;53.768;11.474;2023-07-20T03:16:57;5.90;;;4.17;;
3791;SDS011;1911;53.768;11.474;2023-07-20T03:19:23;6.33;;;3.90;;
3791;SDS011;1911;53.768;11.474;2023-07-20T03:21:48;5.07;;;4.00;;
3791;SDS011;1911;53.768;11.474;2023-07-20T03:24:14;5.00;;;4.13;;
3791;SDS011;1911;53.768;11.474;2023-07-20T03:26:39;4.60;;;3.73;;
3791;SDS011;1911;53.768;11.474;2023-07-20T03:29:05;9.60;;;3.50;;
3791;SDS011;1911;53.768;11.474;2023-07-20T03:31:31;6.37;;;4.40;;
3791;SDS011;1911;53.768;11.474;2023-07-20T03:33:57;6.30;;;4.37;;
3791;SDS011;1911;53.768;11.474;2023-07-20T03:36:23;4.10;;;3.67;;
3791;SDS011;1911;53.768;11.474;2023-07-20T03:38:48;4.47;;;4.07;;
3791;SDS011;1911;53.768;11.474;2023-07-20T03:41:15;4.40;;;3.57;;
3791;SDS011;1911;53.768;11.474;2023-07-20T03:43:41;4.57;;;3.80;;
3791;SDS011;1911;53.768;11.474;2023-07-20T03:46:06;6.53;;;4.27;;
3791;SDS011;1911;53.768;11.474;2023-07-20T03:48:32;4.90;;;3.73;;
3791;SDS011;1911;53.768;11.474;2023-07-20T03:50:58;4.77;;;4.13;;
3791;SDS011;1911;53.768;11.474;2023-07-20T03:53:25;4.77;;;4.27;;
3791;SDS011;1911;53.768;11.474;2023-07-20T03:55:51;5.20;;;3.10;;
3791;SDS011;1911;53.768;11.474;2023-07-20T03:58:18;8.20;;;4.07;;
3791;SDS011;1911;53.768;11.474;2023-07-20T04:00:48;6.60;;;3.83;;
3791;SDS011;1911;53.768;11.474;2023-07-20T04:03:15;5.03;;;3.63;;
3791;SDS011;1911;53.768;11.474;2023-07-20T04:05:43;4.60;;;3.73;;
3791;SDS011;1911;53.768;11.474;2023-07-20T04:08:09;4.70;;;3.70;;
3791;SDS011;1911;53.768;11.474;2023-07-20T04:10:36;4.33;;;3.43;;
3791;SDS011;1911;53.768;11.474;2023-07-20T04:13:02;5.73;;;3.93;;
3791;SDS011;1911;53.768;11.474;2023-07-20T04:15:28;5.67;;;3.60;;
3791;SDS011;1911;53.768;11.474;2023-07-20T04:17:54;4.60;;;3.73;;
3791;SDS011;1911;53.768;11.474;2023-07-20T04:20:21;4.10;;;3.30;;
3791;SDS011;1911;53.768;11.474;2023-07-20T04:22:47;4.47;;;3.27;;
3791;SDS011;1911;53.768;11.474;2023-07-20T04:25:13;4.40;;;3.33;;
3791;SDS011;1911;53.768;11.474;2023-07-20T04:27:38;8.33;;;3.50;;
3791;SDS011;1911;53.768;11.474;2023-07-20T04:30:06;4.27;;;3.70;;
3791;SDS011;1911;53.768;11.474;2023-07-20T04:32:33;5.00;;;3.20;;
3791;SDS011;1911;53.768;11.474;2023-07-20T04:34:59;9.60;;;3.20;;
3791;SDS011;1911;53.768;11.474;2023-07-20T04:37:24;6.70;;;3.80;;
3791;SDS011;1911;53.768;11.474;2023-07-20T04:39:50;4.63;;;4.23;;
3791;SDS011;1911;53.768;11.474;2023-07-20T04:42:15;6.00;;;2.90;;
3791;SDS011;1911;53.768;11.474;2023-07-20T04:44:41;8.30;;;4.00;;
3791;SDS011;1911;53.768;11.474;2023-07-20T04:47:07;4.37;;;3.23;;
3791;SDS011;1911;53.768;11.474;2023-07-20T04:49:33;3.80;;;3.37;;
3791;SDS011;1911;53.768;11.474;2023-07-20T04:51:59;7.73;;;4.00;;
3791;SDS011;1911;53.768;11.474;2023-07-20T04:54:24;5.20;;;3.40;;
3791;SDS011;1911;53.768;11.474;2023-07-20T04:56:52;4.07;;;3.20;;
3791;SDS011;1911;53.768;11.474;2023-07-20T04:59:18;5.17;;;3.13;;
3791;SDS011;1911;53.768;11.474;2023-07-20T05:01:43;5.30;;;3.30;;
3791;SDS011;1911;53.768;11.474;2023-07-20T05:04:09;5.77;;;2.90;;
3791;SDS011;1911;53.768;11.474;2023-07-20T05:06:35;4.60;;;3.10;;
3791;SDS011;1911;53.768;11.474;2023-07-20T05:09:00;5.90;;;2.97;;
3791;SDS011;1911;53.768;11.474;2023-07-20T05:11:26;6.97;;;3.57;;
3791;SDS011;1911;53.768;11.474;2023-07-20T05:13:51;4.07;;;3.37;;
3791;SDS011;1911;53.768;11.474;2023-07-20T05:16:17;4.43;;;2.70;;
3791;SDS011;1911;53.768;11.474;2023-07-20T05:18:43;4.23;;;3.10;;
3791;SDS011;1911;53.768;11.474;2023-07-20T05:21:08;4.50;;;3.30;;
3791;SDS011;1911;53.768;11.474;2023-07-20T05:23:34;3.70;;;2.40;;
3791;SDS011;1911;53.768;11.474;2023-07-20T05:25:59;4.70;;;2.57;;
3791;SDS011;1911;53.768;11.474;2023-07-20T05:28:25;2.77;;;2.00;;
3791;SDS011;1911;53.768;11.474;2023-07-20T05:30:52;4.60;;;2.80;;
3791;SDS011;1911;53.768;11.474;2023-07-20T05:33:18;5.87;;;3.00;;
3791;SDS011;1911;53.768;11.474;2023-07-20T05:35:44;5.60;;;2.47;;
3791;SDS011;1911;53.768;11.474;2023-07-20T05:38:10;3.60;;;2.30;;
3791;SDS011;1911;53.768;11.474;2023-07-20T05:40:40;4.70;;;2.73;;
3791;SDS011;1911;53.768;11.474;2023-07-20T05:43:07;4.73;;;2.70;;
3791;SDS011;1911;53.768;11.474;2023-07-20T05:45:32;3.03;;;2.70;;
3791;SDS011;1911;53.768;11.474;2023-07-20T05:47:58;2.47;;;1.93;;
3791;SDS011;1911;53.768;11.474;2023-07-20T05:50:24;3.00;;;1.90;;
3791;SDS011;1911;53.768;11.474;2023-07-20T05:52:52;2.93;;;1.97;;
3791;SDS011;1911;53.768;11.474;2023-07-20T05:55:18;3.23;;;2.30;;
3791;SDS011;1911;53.768;11.474;2023-07-20T05:57:43;4.97;;;1.70;;
3791;SDS011;1911;53.768;11.474;2023-07-20T06:00:09;5.10;;;1.40;;
3791;SDS011;1911;53.768;11.474;2023-07-20T06:02:35;2.67;;;1.33;;
3791;SDS011;1911;53.768;11.474;2023-07-20T06:05:01;4.60;;;1.40;;
3791;SDS011;1911;53.768;11.474;2023-07-20T06:07:26;1.77;;;0.90;;
3791;SDS011;1911;53.768;11.474;2023-07-20T06:09:52;4.90;;;1.07;;
3791;SDS011;1911;53.768;11.474;2023-07-20T06:12:18;2.50;;;0.70;;
3791;SDS011;1911;53.768;11.474;2023-07-20T06:14:43;2.07;;;0.87;;
3791;SDS011;1911;53.768;11.474;2023-07-20T06:17:09;1.43;;;0.70;;
3791;SDS011;1911;53.768;11.474;2023-07-20T06:19:35;1.20;;;0.83;;
3791;SDS011;1911;53.768;11.474;2023-07-20T06:22:00;4.17;;;0.80;;
3791;SDS011;1911;53.768;11.474;2023-07-20T06:24:26;2.40;;;0.60;;
3791;SDS011;1911;53.768;11.474;2023-07-20T06:26:52;1.77;;;0.77;;
3791;SDS011;1911;53.768;11.474;2023-07-20T06:29:17;5.33;;;1.27;;
3791;SDS011;1911;53.768;11.474;2023-07-20T06:31:44;1.30;;;0.70;;
3791;SDS011;1911;53.768;11.474;2023-07-20T06:34:09;2.17;;;0.90;;
3791;SDS011;1911;53.768;11.474;2023-07-20T06:36:35;4.37;;;0.77;;
3791;SDS011;1911;53.768;11.474;2023-07-20T06:39:01;2.43;;;0.67;;
3791;SDS011;1911;53.768;11.474;2023-07-20T06:41:28;2.17;;;0.87;;
3791;SDS011;1911;53.768;11.474;2023-07-20T06:43:54;1.73;;;0.67;;
3791;SDS011;1911;53.768;11.474;2023-07-20T06:46:23;2.57;;;1.10;;
3791;SDS011;1911;53.768;11.474;2023-07-20T06:48:50;2.43;;;0.90;;
3791;SDS011;1911;53.768;11.474;2023-07-20T06:51:15;1.77;;;0.70;;
3791;SDS011;1911;53.768;11.474;2023-07-20T06:53:41;2.17;;;0.87;;
3791;SDS011;1911;53.768;11.474;2023-07-20T06:56:07;1.63;;;0.63;;
3791;SDS011;1911;53.768;11.474;2023-07-20T06:58:32;1.10;;;0.60;;
3791;SDS011;1911;53.768;11.474;2023-07-20T07:00:58;2.40;;;0.80;;
3791;SDS011;1911;53.768;11.474;2023-07-20T07:03:24;1.40;;;1.00;;
3791;SDS011;1911;53.768;11.474;2023-07-20T07:05:49;2.27;;;0.60;;
3791;SDS011;1911;53.768;11.474;2023-07-20T07:08:15;4.90;;;1.00;;
3791;SDS011;1911;53.768;11.474;2023-07-20T07:10:41;2.30;;;0.60;;
3791;SDS011;1911;53.768;11.474;2023-07-20T07:13:08;1.00;;;0.60;;
3791;SDS011;1911;53.768;11.474;2023-07-20T07:15:34;2.13;;;0.70;;
3791;SDS011;1911;53.768;11.474;2023-07-20T07:17:59;1.60;;;0.80;;
3791;SDS011;1911;53.768;11.474;2023-07-20T07:20:25;1.10;;;0.63;;
3791;SDS011;1911;53.768;11.474;2023-07-20T07:22:51;1.80;;;0.70;;
3791;SDS011;1911;53.768;11.474;2023-07-20T07:25:17;1.53;;;0.80;;
3791;SDS011;1911;53.768;11.474;2023-07-20T07:27:44;1.80;;;0.70;;
3791;SDS011;1911;53.768;11.474;2023-07-20T07:30:09;1.30;;;0.70;;
3791;SDS011;1911;53.768;11.474;2023-07-20T07:32:35;2.27;;;0.77;;
3791;SDS011;1911;53.768;11.474;2023-07-20T07:35:01;1.57;;;0.63;;
3791;SDS011;1911;53.768;11.474;2023-07-20T07:37:27;2.70;;;0.70;;
3791;SDS011;1911;53.768;11.474;2023-07-20T07:39:52;1.73;;;0.70;;
3791;SDS011;1911;53.768;11.474;2023-07-20T07:42:18;1.90;;;0.83;;
3791;SDS011;1911;53.768;11.474;2023-07-20T07:44:44;1.70;;;0.80;;
3791;SDS011;1911;53.768;11.474;2023-07-20T07:47:09;2.57;;;0.90;;
3791;SDS011;1911;53.768;11.474;2023-07-20T07:49:35;1.50;;;0.80;;
3791;SDS011;1911;53.768;11.474;2023-07-20T07:52:01;2.73;;;0.80;;
3791;SDS011;1911;53.768;11.474;2023-07-20T07:54:29;1.63;;;0.70;;
3791;SDS011;1911;53.768;11.474;2023-07-20T07:56:54;1.20;;;0.50;;
3791;SDS011;1911;53.768;11.474;2023-07-20T07:59:21;1.50;;;0.80;;
3791;SDS011;1911;53.768;11.474;2023-07-20T08:01:46;2.30;;;0.53;;
3791;SDS011;1911;53.768;11.474;2023-07-20T08:04:12;3.03;;;0.90;;
3791;SDS011;1911;53.768;11.474;2023-07-20T08:06:38;2.60;;;0.80;;
3791;SDS011;1911;53.768;11.474;2023-07-20T08:09:03;1.20;;;0.60;;
3791;SDS011;1911;53.768;11.474;2023-07-20T08:11:29;2.60;;;0.70;;
3791;SDS011;1911;53.768;11.474;2023-07-20T08:13:56;1.77;;;0.70;;
3791;SDS011;1911;53.768;11.474;2023-07-20T08:16:22;1.43;;;0.63;;
3791;SDS011;1911;53.768;11.474;2023-07-20T08:18:47;1.50;;;0.87;;
3791;SDS011;1911;53.768;11.474;2023-07-20T08:21:13;2.13;;;0.80;;
3791;SDS011;1911;53.768;11.474;2023-07-20T08:23:38;3.30;;;1.00;;
3791;SDS011;1911;53.768;11.474;2023-07-20T08:26:04;1.80;;;0.80;;
3791;SDS011;1911;53.768;11.474;2023-07-20T08:28:29;2.13;;;0.93;;
3791;SDS011;1911;53.768;11.474;2023-07-20T08:30:56;1.37;;;0.60;;
3791;SDS011;1911;53.768;11.474;2023-07-20T08:33:22;2.53;;;0.77;;
3791;SDS011;1911;53.768;11.474;2023-07-20T08:35:48;2.07;;;0.70;;
3791;SDS011;1911;53.768;11.474;2023-07-20T08:38:14;1.93;;;1.00;;
3791;SDS011;1911;53.768;11.474;2023-07-20T08:40:41;1.90;;;1.00;;
3791;SDS011;1911;53.768;11.474;2023-07-20T08:43:08;1.83;;;1.00;;
3791;SDS011;1911;53.768;11.474;2023-07-20T08:45:38;1.80;;;0.90;;
3791;SDS011;1911;53.768;11.474;2023-07-20T08:48:05;4.97;;;1.33;;
3791;SDS011;1911;53.768;11.474;2023-07-20T08:50:35;3.30;;;1.20;;
3791;SDS011;1911;53.768;11.474;2023-07-20T08:53:01;2.77;;;1.10;;
3791;SDS011;1911;53.768;11.474;2023-07-20T08:55:28;3.53;;;1.00;;
3791;SDS011;1911;53.768;11.474;2023-07-20T08:57:56;2.30;;;0.93;;
3791;SDS011;1911;53.768;11.474;2023-07-20T09:00:23;2.57;;;1.23;;
3791;SDS011;1911;53.768;11.474;2023-07-20T09:02:50;2.53;;;1.27;;
3791;SDS011;1911;53.768;11.474;2023-07-20T09:05:18;3.97;;;1.07;;
3791;SDS011;1911;53.768;11.474;2023-07-20T09:07:44;2.63;;;1.10;;
3791;SDS011;1911;53.768;11.474;2023-07-20T09:10:10;3.67;;;1.37;;
3791;SDS011;1911;53.768;11.474;2023-07-20T09:12:37;3.63;;;1.57;;
3791;SDS011;1911;53.768;11.474;2023-07-20T09:15:04;2.57;;;1.10;;
3791;SDS011;1911;53.768;11.474;2023-07-20T09:17:30;2.17;;;1.13;;
3791;SDS011;1911;53.768;11.474;2023-07-20T09:19:56;5.80;;;1.87;;
3791;SDS011;1911;53.768;11.474;2023-07-20T09:22:22;2.20;;;1.10;;
3791;SDS011;1911;53.768;11.474;2023-07-20T09:24:55;2.10;;;1.23;;
3791;SDS011;1911;53.768;11.474;2023-07-20T09:27:21;1.80;;;1.17;;
3791;SDS011;1911;53.768;11.474;2023-07-20T09:29:50;2.37;;;1.13;;
3791;SDS011;1911;53.768;11.474;2023-07-20T09:32:20;2.00;;;1.10;;
3791;SDS011;1911;53.768;11.474;2023-07-20T09:34:46;2.60;;;1.00;;
3791;SDS011;1911;53.768;11.474;2023-07-20T09:37:14;3.70;;;1.53;;
3791;SDS011;1911;53.768;11.474;2023-07-20T09:39:48;1.83;;;1.40;;
3791;SDS011;1911;53.768;11.474;2023-07-20T09:42:16;3.47;;;1.70;;
3791;SDS011;1911;53.768;11.474;2023-07-20T09:44:43;3.40;;;1.17;;
3791;SDS011;1911;53.768;11.474;2023-07-20T09:47:09;4.27;;;1.87;;
3791;SDS011;1911;53.768;11.474;2023-07-20T09:49:41;2.23;;;1.27;;
3791;SDS011;1911;53.768;11.474;2023-07-20T09:52:10;4.90;;;1.40;;
3791;SDS011;1911;53.768;11.474;2023-07-20T09:54:39;5.23;;;1.60;;
3791;SDS011;1911;53.768;11.474;2023-07-20T09:57:08;2.33;;;1.90;;
3791;SDS011;1911;53.768;11.474;2023-07-20T09:59:35;2.87;;;1.60;;
3791;SDS011;1911;53.768;11.474;2023-07-20T10:02:01;2.83;;;2.17;;
3791;SDS011;1911;53.768;11.474;2023-07-20T10:04:30;4.23;;;1.90;;
3791;SDS011;1911;53.768;11.474;2023-07-20T10:06:56;1.70;;;1.50;;
3791;SDS011;1911;53.768;11.474;2023-07-20T10:09:25;3.30;;;2.57;;
3791;SDS011;1911;53.768;11.474;2023-07-20T10:11:52;2.87;;;1.80;;
3791;SDS011;1911;53.768;11.474;2023-07-20T10:14:21;2.87;;;1.90;;
3791;SDS011;1911;53.768;11.474;2023-07-20T10:16:51;3.00;;;1.67;;
3791;SDS011;1911;53.768;11.474;2023-07-20T10:19:27;2.70;;;1.63;;
3791;SDS011;1911;53.768;11.474;2023-07-20T10:22:09;4.50;;;2.13;;
3791;SDS011;1911;53.768;11.474;2023-07-20T10:24:38;4.83;;;1.33;;
3791;SDS011;1911;53.768;11.474;2023-07-20T10:27:04;3.67;;;1.57;;
3791;SDS011;1911;53.768;11.474;2023-07-20T10:29:30;3.80;;;1.40;;
3791;SDS011;1911;53.768;11.474;2023-07-20T10:31:57;2.10;;;1.40;;
3791;SDS011;1911;53.768;11.474;2023-07-20T10:34:23;3.00;;;1.30;;
3791;SDS011;1911;53.768;11.474;2023-07-20T10:36:49;2.70;;;1.60;;
3791;SDS011;1911;53.768;11.474;2023-07-20T10:39:22;5.63;;;2.20;;
3791;SDS011;1911;53.768;11.474;2023-07-20T10:41:49;2.13;;;1.20;;
3791;SDS011;1911;53.768;11.474;2023-07-20T10:44:15;6.40;;;1.50;;
3791;SDS011;1911;53.768;11.474;2023-07-20T10:46:45;7.67;;;2.10;;
3791;SDS011;1911;53.768;11.474;2023-07-20T10:49:14;3.13;;;1.40;;
3791;SDS011;1911;53.768;11.474;2023-07-20T10:51:41;2.10;;;1.13;;
3791;SDS011;1911;53.768;11.474;2023-07-20T10:56:41;5.50;;;1.50;;
3791;SDS011;1911;53.768;11.474;2023-07-20T10:59:20;1.93;;;1.00;;
3791;SDS011;1911;53.768;11.474;2023-07-20T11:02:05;2.00;;;1.20;;
3791;SDS011;1911;53.768;11.474;2023-07-20T11:07:03;2.53;;;1.23;;
3791;SDS011;1911;53.768;11.474;2023-07-20T11:09:33;2.33;;;1.37;;
3791;SDS011;1911;53.768;11.474;2023-07-20T11:12:14;3.13;;;1.93;;
3791;SDS011;1911;53.768;11.474;2023-07-20T11:14:53;1.50;;;1.00;;
3791;SDS011;1911;53.768;11.474;2023-07-20T11:17:21;2.27;;;1.07;;
3791;SDS011;1911;53.768;11.474;2023-07-20T11:19:57;2.10;;;0.90;;
3791;SDS011;1911;53.768;11.474;2023-07-20T11:22:25;2.00;;;1.30;;
3791;SDS011;1911;53.768;11.474;2023-07-20T11:24:54;2.43;;;1.60;;
3791;SDS011;1911;53.768;11.474;2023-07-20T11:27:20;1.40;;;1.10;;
3791;SDS011;1911;53.768;11.474;2023-07-20T11:29:47;3.27;;;1.20;;
3791;SDS011;1911;53.768;11.474;2023-07-20T11:32:20;1.57;;;1.00;;
3791;SDS011;1911;53.768;11.474;2023-07-20T11:34:49;1.70;;;1.30;;
3791;SDS011;1911;53.768;11.474;2023-07-20T11:37:16;2.83;;;1.23;;
3791;SDS011;1911;53.768;11.474;2023-07-20T11:39:42;4.33;;;1.50;;
3791;SDS011;1911;53.768;11.474;2023-07-20T11:42:07;2.73;;;1.47;;
3791;SDS011;1911;53.768;11.474;2023-07-20T11:44:33;2.23;;;1.67;;
3791;SDS011;1911;53.768;11.474;2023-07-20T11:47:09;3.10;;;0.97;;
3791;SDS011;1911;53.768;11.474;2023-07-20T11:49:40;3.63;;;1.27;;
3791;SDS011;1911;53.768;11.474;2023-07-20T11:52:06;2.40;;;1.30;;
3791;SDS011;1911;53.768;11.474;2023-07-20T11:54:37;1.47;;;1.10;;
3791;SDS011;1911;53.768;11.474;2023-07-20T11:57:04;2.13;;;1.03;;
3791;SDS011;1911;53.768;11.474;2023-07-20T11:59:30;1.50;;;0.73;;
3791;SDS011;1911;53.768;11.474;2023-07-20T12:01:56;4.00;;;1.00;;
3791;SDS011;1911;53.768;11.474;2023-07-20T12:04:23;1.40;;;0.60;;
3791;SDS011;1911;53.768;11.474;2023-07-20T12:06:48;2.70;;;0.97;;
3791;SDS011;1911;53.768;11.474;2023-07-20T12:09:14;1.60;;;0.80;;
3791;SDS011;1911;53.768;11.474;2023-07-20T12:11:42;1.83;;;0.80;;
3791;SDS011;1911;53.768;11.474;2023-07-20T12:14:12;1.50;;;1.10;;
3791;SDS011;1911;53.768;11.474;2023-07-20T12:16:38;2.43;;;0.93;;
3791;SDS011;1911;53.768;11.474;2023-07-20T12:19:08;3.13;;;0.90;;
3791;SDS011;1911;53.768;11.474;2023-07-20T12:21:36;1.50;;;0.80;;
3791;SDS011;1911;53.768;11.474;2023-07-20T12:24:03;2.17;;;0.70;;
3791;SDS011;1911;53.768;11.474;2023-07-20T12:26:31;3.33;;;1.10;;
3791;SDS011;1911;53.768;11.474;2023-07-20T12:28:58;1.90;;;0.80;;
3791;SDS011;1911;53.768;11.474;2023-07-20T12:31:25;1.87;;;0.80;;
3791;SDS011;1911;53.768;11.474;2023-07-20T12:33:51;1.00;;;0.60;;
3791;SDS011;1911;53.768;11.474;2023-07-20T12:36:18;1.23;;;0.60;;
3791;SDS011;1911;53.768;11.474;2023-07-20T12:38:44;1.63;;;0.67;;
3791;SDS011;1911;53.768;11.474;2023-07-20T12:41:10;1.63;;;0.57;;
3791;SDS011;1911;53.768;11.474;2023-07-20T12:43:43;1.90;;;1.00;;
3791;SDS011;1911;53.768;11.474;2023-07-20T12:46:10;2.10;;;0.60;;
3791;SDS011;1911;53.768;11.474;2023-07-20T12:48:37;1.10;;;0.60;;
3791;SDS011;1911;53.768;11.474;2023-07-20T12:51:05;1.83;;;0.50;;
3791;SDS011;1911;53.768;11.474;2023-07-20T12:53:31;1.77;;;0.77;;
3791;SDS011;1911;53.768;11.474;2023-07-20T12:55:57;1.37;;;0.70;;
3791;SDS011;1911;53.768;11.474;2023-07-20T12:58:23;1.73;;;0.60;;
3791;SDS011;1911;53.768;11.474;2023-07-20T13:00:49;1.33;;;0.60;;
3791;SDS011;1911;53.768;11.474;2023-07-20T13:03:14;1.70;;;0.73;;
3791;SDS011;1911;53.768;11.474;2023-07-20T13:05:41;2.60;;;0.70;;
3791;SDS011;1911;53.768;11.474;2023-07-20T13:08:06;1.30;;;0.60;;
3791;SDS011;1911;53.768;11.474;2023-07-20T13:10:32;1.30;;;0.70;;
3791;SDS011;1911;53.768;11.474;2023-07-20T13:12:59;2.17;;;0.60;;
3791;SDS011;1911;53.768;11.474;2023-07-20T13:15:28;5.20;;;0.80;;
3791;SDS011;1911;53.768;11.474;2023-07-20T13:17:56;1.77;;;0.80;;
3791;SDS011;1911;53.768;11.474;2023-07-20T13:20:22;4.53;;;0.73;;
3791;SDS011;1911;53.768;11.474;2023-07-20T13:22:48;1.93;;;0.70;;
3791;SDS011;1911;53.768;11.474;2023-07-20T13:25:14;1.83;;;1.10;;
3791;SDS011;1911;53.768;11.474;2023-07-20T13:27:39;3.10;;;0.70;;
3791;SDS011;1911;53.768;11.474;2023-07-20T13:30:05;2.83;;;0.70;;
3791;SDS011;1911;53.768;11.474;2023-07-20T13:32:33;2.70;;;0.80;;
3791;SDS011;1911;53.768;11.474;2023-07-20T13:35:00;2.70;;;1.00;;
3791;SDS011;1911;53.768;11.474;2023-07-20T13:37:26;1.67;;;0.70;;
3791;SDS011;1911;53.768;11.474;2023-07-20T13:39:53;3.47;;;1.10;;
3791;SDS011;1911;53.768;11.474;2023-07-20T13:42:19;4.30;;;0.80;;
3791;SDS011;1911;53.768;11.474;2023-07-20T13:44:46;1.93;;;0.80;;
3791;SDS011;1911;53.768;11.474;2023-07-20T13:47:12;2.30;;;0.50;;
3791;SDS011;1911;53.768;11.474;2023-07-20T13:49:38;2.57;;;0.90;;
3791;SDS011;1911;53.768;11.474;2023-07-20T13:52:04;1.27;;;0.50;;
3791;SDS011;1911;53.768;11.474;2023-07-20T13:54:30;1.20;;;0.67;;
3791;SDS011;1911;53.768;11.474;2023-07-20T13:56:55;1.60;;;0.90;;
3791;SDS011;1911;53.768;11.474;2023-07-20T13:59:22;2.60;;;0.60;;
3791;SDS011;1911;53.768;11.474;2023-07-20T14:01:48;2.37;;;0.60;;
3791;SDS011;1911;53.768;11.474;2023-07-20T14:04:14;2.03;;;0.50;;
3791;SDS011;1911;53.768;11.474;2023-07-20T14:06:40;2.20;;;0.70;;
3791;SDS011;1911;53.768;11.474;2023-07-20T14:09:06;2.60;;;0.63;;
3791;SDS011;1911;53.768;11.474;2023-07-20T14:11:32;1.73;;;0.70;;
3791;SDS011;1911;53.768;11.474;2023-07-20T14:13:58;2.07;;;0.90;;
3791;SDS011;1911;53.768;11.474;2023-07-20T14:16:24;1.87;;;0.70;;
3791;SDS011;1911;53.768;11.474;2023-07-20T14:18:50;2.03;;;0.73;;
3791;SDS011;1911;53.768;11.474;2023-07-20T14:21:16;4.83;;;1.00;;
3791;SDS011;1911;53.768;11.474;2023-07-20T14:23:44;2.03;;;0.60;;
3791;SDS011;1911;53.768;11.474;2023-07-20T14:26:11;3.33;;;0.97;;
3791;SDS011;1911;53.768;11.474;2023-07-20T14:28:37;4.53;;;1.30;;
3791;SDS011;1911;53.768;11.474;2023-07-20T14:31:05;2.23;;;0.80;;
3791;SDS011;1911;53.768;11.474;2023-07-20T14:33:31;10.83;;;1.47;;
3791;SDS011;1911;53.768;11.474;2023-07-20T14:35:56;3.70;;;1.00;;
3791;SDS011;1911;53.768;11.474;2023-07-20T14:38:22;10.53;;;2.00;;
3791;SDS011;1911;53.768;11.474;2023-07-20T14:40:48;4.17;;;1.07;;
3791;SDS011;1911;53.768;11.474;2023-07-20T14:43:14;4.40;;;1.13;;
3791;SDS011;1911;53.768;11.474;2023-07-20T14:45:40;2.40;;;0.70;;
3791;SDS011;1911;53.768;11.474;2023-07-20T14:48:07;3.27;;;1.57;;
3791;SDS011;1911;53.768;11.474;2023-07-20T14:50:33;2.33;;;0.90;;
3791;SDS011;1911;53.768;11.474;2023-07-20T14:52:59;3.90;;;0.70;;
3791;SDS011;1911;53.768;11.474;2023-07-20T14:55:28;2.37;;;0.80;;
3791;SDS011;1911;53.768;11.474;2023-07-20T14:57:53;2.60;;;0.90;;
3791;SDS011;1911;53.768;11.474;2023-07-20T15:00:19;2.23;;;0.90;;
3791;SDS011;1911;53.768;11.474;2023-07-20T15:02:44;4.17;;;1.70;;
3791;SDS011;1911;53.768;11.474;2023-07-20T15:05:10;2.37;;;0.80;;
3791;SDS011;1911;53.768;11.474;2023-07-20T15:07:36;2.10;;;0.87;;
3791;SDS011;1911;53.768;11.474;2023-07-20T15:10:03;1.93;;;0.93;;
3791;SDS011;1911;53.768;11.474;2023-07-20T15:12:29;2.40;;;1.30;;
3791;SDS011;1911;53.768;11.474;2023-07-20T15:15:02;5.53;;;1.33;;
3791;SDS011;1911;53.768;11.474;2023-07-20T15:17:32;2.70;;;0.97;;
3791;SDS011;1911;53.768;11.474;2023-07-20T15:19:58;1.50;;;0.90;;
3791;SDS011;1911;53.768;11.474;2023-07-20T15:22:24;1.43;;;0.90;;